Airfield :
LOGIN :

Register | Disclaimer

   EN    FR    IT 

 










Legend :    VFR   Marginal VFR   IFR   Intensive IFR   Very Intensive IFR
Visi :
Ceiling :
>= 8 km
>= 3000ft
5 to 8 km
1000 to 3000 ft
1500m to 5 km
500 to 1000 ft
800 to 1500m
200 to 500 ft
< 800m
< 200 ft
Symbols :   Thunderstorms  Fog  Heavy snow  Heavy precipitations  Wind > 20 kt
SIGMETs :     Misc.  Thunderstorms  Icing  Turbulence  Mountain Waves  Volcanic Ashes







- Airport Elevation : 12 ft
- IATA code : BCN


LEBL - Barcelone

CURRENT METAR :
  • 210830Z 33008KT 300V010 CAVOK 18/15 Q1022 NOSIG

EXPIRED METARs :
  • 210800Z 33009KT CAVOK 17/14 Q1022 NOSIG
  • 210730Z 33008KT 300V010 CAVOK 16/14 Q1022 NOSIG
  • 210700Z 33010G20KT CAVOK 16/14 Q1022 NOSIG
  • 210630Z 32011KT CAVOK 16/14 Q1022 NOSIG
  • 210600Z 33010G20KT 300V020 9999 FEW040 16/14 Q1022 NOSIG

TAF TAF LEBL
Valid from the 21 at 06:00 until the 22 at 06:00 UTC


210500Z 2106/2206 34008KT 9999 FEW040 TX25/2112Z TN15/2106Z
BECMG 2110/2113 23010KT
BECMG 2120/2122 34008KT
No reported NOTAMs for that airfield.
1 SIGMET reported for the Barcelona FIR (LECB) :
 
Severe turbulence
LECB SIGMET 2 VALID 210600/211000 LEVA
LECB BARCELONA UIR SEV TURB FCST N OF LINE N4201 E00037 - N4103 E00433 FL270/320 MOV S 10KT NC=



MET'MAP, your aeronautical weather chart ! - Copyright ORBIFLY December 2007 - Disclaimer

ORBIFLY MET'MAP TEAM :

Programming & Development : Alexandra Zaïnal
Concept & Development : Baudouin d'Aumeries
Co-Development & Prog : Marc-Olivier Méhu
Technical & hardware support : Manuel Goepfert

Contact : metmap@orbifly.com




SOURCES & CREDITS :

   NOAA